Airport ICAO


11:57 UTC

24°C

Clear skies


An affordable passengers' Moving Map for your aircraft. Made for the iPad and the iPhone
More information here

LFPV Velizy


Villacoublay FRANCE   VFR CAVOK


METAR LFPV 191130Z AUTO 23007KT 200V260 CAVOK 24/11 Q1025 NOSIG 0h27min

TAF LFPV 190800Z 1909/2009 19003KT CAVOK 3h57min





NOTAMS

OPEN